Time;durP1;ratioP1;P1;durP2;ratioP2;P2;SDS_P1;SDS_P2;PMS_P1;PMS_P2;Temp;Humidity;BMP_temperature;BMP_pressure;BME280_temperature;BME280_humidity;BME280_pressure;Samples;Min_cycle;Max_cycle;Signal;HPM_P1;HPM_P2
2022/12/08 00:01:20;;;;;;;14.18;7.30;;;;;;;-1.17;100.00;98693.63;5067848;28;20131;-81
2022/12/08 00:03:48;;;;;;;18.70;8.25;;;;;;;-1.33;100.00;98677.97;5058361;28;20412;-81
2022/12/08 00:09:22;;;;;;;19.83;8.63;;;;;;;-1.49;100.00;98662.31;5061077;28;20106;-80
2022/12/08 00:11:52;;;;;;;15.90;7.82;;;;;;;-1.36;100.00;98664.88;5063565;28;20044;-80
2022/12/08 00:14:19;;;;;;;19.58;9.40;;;;;;;-1.40;100.00;98674.09;5058422;28;20045;-80
2022/12/08 00:16:45;;;;;;;20.20;9.23;;;;;;;-1.27;100.00;98686.31;5063682;28;20044;-80
2022/12/08 00:19:13;;;;;;;17.13;8.32;;;;;;;-1.22;100.00;98687.78;5072716;28;20056;-81
2022/12/08 00:21:40;;;;;;;20.10;8.23;;;;;;;-1.18;100.00;98673.25;5062743;28;20045;-80
2022/12/08 00:24:07;;;;;;;17.85;8.20;;;;;;;-1.25;100.00;98675.53;5072390;28;20145;-80
2022/12/08 00:26:33;;;;;;;19.58;8.30;;;;;;;-1.35;100.00;98680.78;5060179;28;20049;-81
2022/12/08 00:29:00;;;;;;;16.90;8.00;;;;;;;-1.44;100.00;98666.34;5063521;28;20052;-80
2022/12/08 00:31:26;;;;;;;15.02;8.27;;;;;;;-1.47;100.00;98674.56;5069781;28;20083;-80
2022/12/08 00:33:53;;;;;;;19.05;8.43;;;;;;;-1.52;100.00;98663.44;5060503;28;20048;-80
2022/12/08 00:36:21;;;;;;;16.95;8.63;;;;;;;-1.50;100.00;98666.81;5072981;28;20059;-80
2022/12/08 00:38:48;;;;;;;16.90;8.70;;;;;;;-1.39;100.00;98675.81;5061600;28;20052;-81
2022/12/08 00:41:16;;;;;;;18.65;8.60;;;;;;;-1.48;100.00;98656.88;5062317;28;20060;-80
2022/12/08 00:43:42;;;;;;;19.75;9.30;;;;;;;-1.50;100.00;98648.16;5060914;28;20041;-80
2022/12/08 00:46:09;;;;;;;18.98;8.82;;;;;;;-1.50;100.00;98648.16;5072460;28;20071;-80
2022/12/08 00:48:35;;;;;;;21.42;9.15;;;;;;;-1.39;100.00;98657.97;5056849;28;20059;-80
2022/12/08 00:51:02;;;;;;;17.48;9.55;;;;;;;-1.34;100.00;98665.59;5052535;28;20053;-80
2022/12/08 00:53:31;;;;;;;21.92;9.52;;;;;;;-1.39;100.00;98647.31;5064660;28;20075;-80
2022/12/08 00:55:58;;;;;;;18.55;8.48;;;;;;;-1.45;100.00;98637.97;5067844;28;20056;-81
2022/12/08 00:58:24;;;;;;;18.13;8.43;;;;;;;-1.60;100.00;98639.19;5066621;28;20051;-81
2022/12/08 01:00:51;;;;;;;18.55;9.25;;;;;;;-1.46;100.00;98638.97;5061153;28;20056;-80
2022/12/08 01:03:20;;;;;;;21.35;9.88;;;;;;;-1.35;100.00;98654.09;5068458;28;20052;-80
2022/12/08 01:05:47;;;;;;;21.10;8.73;;;;;;;-1.41;100.00;98659.94;5072455;28;20055;-80
2022/12/08 01:08:13;;;;;;;16.20;7.80;;;;;;;-1.43;100.00;98632.50;5062691;28;20064;-80
2022/12/08 01:10:41;;;;;;;18.88;9.10;;;;;;;-1.28;100.00;98647.31;5064049;28;20052;-80
2022/12/08 01:13:08;;;;;;;19.02;9.48;;;;;;;-1.14;100.00;98650.69;5066393;28;20171;-80
2022/12/08 01:15:34;;;;;;;22.63;9.23;;;;;;;-1.23;100.00;98643.41;5053654;28;20057;-80
2022/12/08 01:18:02;;;;;;;16.42;7.57;;;;;;;-1.28;100.00;98649.97;5050819;28;20049;-81
2022/12/08 01:20:28;;;;;;;17.52;8.10;;;;;;;-1.29;100.00;98636.78;5054979;28;20044;-79
2022/12/08 01:22:55;;;;;;;14.50;8.13;;;;;;;-1.14;100.00;98640.03;5071345;28;20049;-78
2022/12/08 01:25:23;;;;;;;19.30;8.80;;;;;;;-1.21;100.00;98628.97;5058469;28;20141;-78
2022/12/08 01:27:51;;;;;;;16.45;8.20;;;;;;;-1.18;100.00;98633.22;5065546;28;20077;-78
2022/12/08 01:30:18;;;;;;;18.25;8.75;;;;;;;-1.20;100.00;98640.53;5067070;28;20525;-78
2022/12/08 01:32:45;;;;;;;18.77;8.55;;;;;;;-1.15;100.00;98639.16;5068010;28;20484;-80
2022/12/08 01:35:12;;;;;;;20.40;8.63;;;;;;;-1.18;100.00;98639.41;5066034;28;20427;-80
2022/12/08 01:37:39;;;;;;;17.58;8.68;;;;;;;-1.15;100.00;98657.84;5064355;28;20053;-80
2022/12/08 01:40:07;;;;;;;23.02;9.55;;;;;;;-1.17;100.00;98650.94;5061974;28;20505;-80
2022/12/08 01:42:37;;;;;;;14.88;7.85;;;;;;;-1.34;100.00;98629.13;5059821;28;20059;-81
2022/12/08 01:45:07;;;;;;;17.05;8.05;;;;;;;-1.27;100.00;98624.97;5068075;28;20049;-80
2022/12/08 01:47:36;;;;;;;;;;;;;;;-1.21;100.00;98647.66;5069122;28;20426;-80
2022/12/08 01:50:03;;;;;;;12.60;6.93;;;;;;;-1.39;100.00;98625.13;5060668;28;19920;-80
2022/12/08 01:52:35;;;;;;;15.43;8.10;;;;;;;-1.48;100.00;98616.03;5069477;28;21056;-80
2022/12/08 01:55:06;;;;;;;17.13;8.00;;;;;;;-1.46;100.00;98638.97;5067366;28;20053;-80
2022/12/08 01:57:37;;;;;;;17.92;8.48;;;;;;;-1.48;100.00;98629.38;5061658;28;20053;-80
2022/12/08 02:00:08;;;;;;;14.23;7.43;;;;;;;-1.58;100.00;98623.06;5061761;28;20068;-80
2022/12/08 02:02:44;;;;;;;12.65;7.25;;;;;;;-1.66;100.00;98618.34;5059936;28;20089;-80
2022/12/08 02:05:10;;;;;;;17.80;7.30;;;;;;;-1.67;100.00;98619.31;5068118;28;20052;-81
2022/12/08 02:07:37;;;;;;;15.73;7.25;;;;;;;-1.79;100.00;98610.47;5073773;28;20052;-80
2022/12/08 02:10:05;;;;;;;16.33;6.82;;;;;;;-1.87;100.00;98613.72;5062025;28;20062;-80
2022/12/08 02:12:32;;;;;;;13.13;6.95;;;;;;;-1.88;100.00;98616.50;5068869;28;20502;-80
2022/12/08 02:14:59;;;;;;;14.80;7.78;;;;;;;-1.89;100.00;98618.34;5068198;28;20428;-81
2022/12/08 02:17:42;;;;;;;17.42;7.97;;;;;;;-1.81;100.00;98626.59;5070954;28;20052;-80
2022/12/08 02:20:30;;;;;;;20.00;7.32;;;;;;;-2.02;100.00;98612.25;5072996;28;20044;-80
2022/12/08 02:23:05;;;;;;;13.32;6.60;;;;;;;-1.99;100.00;98620.00;5053075;28;20118;-80
2022/12/08 02:25:41;;;;;;;18.88;7.38;;;;;;;-2.04;100.00;98595.56;5068510;28;20056;-80
2022/12/08 02:28:33;;;;;;;16.02;7.57;;;;;;;-1.94;100.00;98609.88;5066930;28;20131;-80
2022/12/08 02:31:10;;;;;;;12.93;6.75;;;;;;;-1.97;100.00;98626.94;5055444;28;20052;-80
2022/12/08 02:34:03;;;;;;;16.27;6.60;;;;;;;-1.93;100.00;98626.69;5062917;28;20506;-80
2022/12/08 02:36:35;;;;;;;15.10;7.20;;;;;;;-1.97;100.00;98616.28;5072330;28;20480;-80
2022/12/08 02:39:11;;;;;;;16.10;7.53;;;;;;;-2.08;100.00;98604.75;5064054;28;20059;-80
2022/12/08 02:41:45;;;;;;;22.98;7.72;;;;;;;-2.14;100.00;98609.59;5065363;28;20094;-80
2022/12/08 02:44:18;;;;;;;14.07;7.00;;;;;;;-2.13;100.00;98605.94;5057453;28;20049;-80
2022/12/08 02:46:49;;;;;;;15.02;6.75;;;;;;;-2.31;100.00;98597.53;5072403;28;20040;-80
2022/12/08 02:49:17;;;;;;;17.33;8.55;;;;;;;-2.16;100.00;98614.16;5058553;28;20045;-80
2022/12/08 02:51:43;;;;;;;15.10;7.07;;;;;;;-2.23;100.00;98601.44;5072940;28;20407;-80
2022/12/08 02:54:10;;;;;;;14.55;7.25;;;;;;;-2.38;100.00;98569.72;5065877;28;20725;-80
2022/12/08 02:57:03;;;;;;;13.07;6.65;;;;;;;-2.32;100.00;98589.69;5065057;28;20054;-81
2022/12/08 02:59:44;;;;;;;18.20;7.18;;;;;;;-2.40;100.00;98574.28;5061797;28;20473;-80
2022/12/08 03:02:25;;;;;;;14.45;6.07;;;;;;;-2.37;100.00;98570.56;5064550;28;20048;-81
2022/12/08 03:05:03;;;;;;;15.88;7.15;;;;;;;-2.26;100.00;98573.22;5067266;28;20055;-81
2022/12/08 03:07:35;;;;;;;14.70;7.60;;;;;;;-2.17;100.00;98585.00;5070036;28;20048;-80
2022/12/08 03:10:10;;;;;;;18.48;7.60;;;;;;;-2.19;100.00;98594.91;5065835;28;20045;-80
2022/12/08 03:12:42;;;;;;;16.52;6.82;;;;;;;-2.28;100.00;98577.00;5051552;28;20098;-80
2022/12/08 03:15:13;;;;;;;15.25;7.00;;;;;;;-2.27;100.00;98582.19;5069405;28;20127;-81
2022/12/08 03:17:44;;;;;;;23.00;8.60;;;;;;;-2.28;100.00;98585.81;5067413;28;20128;-80
2022/12/08 03:20:16;;;;;;;14.55;7.13;;;;;;;-2.29;100.00;98583.28;5062817;28;20048;-80
2022/12/08 03:22:45;;;;;;;12.43;6.43;;;;;;;-2.55;100.00;98551.50;5068603;28;20403;-80
2022/12/08 03:25:15;;;;;;;16.13;7.05;;;;;;;-2.51;100.00;98561.81;5067115;28;20135;-80
2022/12/08 03:27:43;;;;;;;15.63;6.90;;;;;;;-2.49;100.00;98561.69;5067240;28;20094;-80
2022/12/08 03:30:10;;;;;;;14.55;6.53;;;;;;;-2.50;100.00;98554.66;5068795;28;20133;-80
2022/12/08 03:32:46;;;;;;;17.88;7.10;;;;;;;-2.58;100.00;98549.94;5052034;28;20058;-80
2022/12/08 03:35:16;;;;;;;12.10;6.32;;;;;;;-2.66;100.00;98528.38;5060552;28;20096;-80
2022/12/08 03:37:43;;;;;;;12.02;6.30;;;;;;;-2.62;100.00;98531.66;5064668;28;20405;-80
2022/12/08 03:40:13;;;;;;;14.63;6.65;;;;;;;-2.52;100.00;98540.63;5070622;28;20048;-81
2022/12/08 03:42:40;;;;;;;15.98;6.50;;;;;;;-2.61;100.00;98525.38;5059410;28;20048;-80
2022/12/08 03:45:07;;;;;;;14.43;6.43;;;;;;;-2.75;100.00;98516.63;5062554;28;20045;-80
2022/12/08 03:47:33;;;;;;;17.77;6.88;;;;;;;-2.52;100.00;98553.94;5065869;28;20041;-80
2022/12/08 03:50:00;;;;;;;19.45;6.57;;;;;;;-2.59;100.00;98537.59;5072228;28;20145;-80
2022/12/08 03:52:28;;;;;;;13.63;7.90;;;;;;;-2.58;100.00;98523.31;5068068;28;20060;-80
2022/12/08 03:54:54;;;;;;;13.95;7.30;;;;;;;-2.53;100.00;98525.63;5065830;28;20044;-80
2022/12/08 03:57:21;;;;;;;13.77;6.50;;;;;;;-2.60;100.00;98530.56;5067830;28;20063;-80
2022/12/08 03:59:48;;;;;;;13.90;7.00;;;;;;;-2.37;100.00;98543.94;5071810;28;20044;-80
2022/12/08 04:02:14;;;;;;;14.40;6.75;;;;;;;-2.50;100.00;98534.22;5071231;28;20044;-81
2022/12/08 04:04:41;;;;;;;17.33;7.45;;;;;;;-2.55;100.00;98517.75;5071874;28;20045;-80
2022/12/08 04:07:07;;;;;;;12.70;6.28;;;;;;;-2.39;100.00;98527.25;5069484;28;20135;-80
2022/12/08 04:09:35;;;;;;;14.45;6.85;;;;;;;-2.37;100.00;98527.97;5054277;28;20037;-80
2022/12/08 04:12:02;;;;;;;12.85;7.22;;;;;;;-2.54;100.00;98510.63;5070301;28;20080;-80
2022/12/08 04:14:28;;;;;;;16.30;6.47;;;;;;;-2.50;100.00;98525.38;5068411;28;20056;-80
2022/12/08 04:16:55;;;;;;;13.70;7.03;;;;;;;-2.56;100.00;98515.22;5067081;28;20162;-80
2022/12/08 04:19:22;;;;;;;12.68;6.82;;;;;;;-2.39;100.00;98536.06;5066988;28;20415;-81
2022/12/08 04:21:48;;;;;;;16.80;7.53;;;;;;;-2.67;100.00;98519.53;5064316;28;20072;-80
2022/12/08 04:24:15;;;;;;;16.90;6.60;;;;;;;-2.73;100.00;98501.38;5057881;28;20142;-80
2022/12/08 04:26:43;;;;;;;17.17;7.50;;;;;;;-2.52;100.00;98529.97;5067035;28;20478;-80
2022/12/08 04:29:10;;;;;;;16.55;6.65;;;;;;;-2.61;100.00;98502.25;5064578;28;20040;-80
2022/12/08 04:31:37;;;;;;;20.35;7.50;;;;;;;-2.58;100.00;98512.66;5069928;28;20488;-80
2022/12/08 04:34:04;;;;;;;13.93;7.07;;;;;;;-2.62;100.00;98505.03;5066075;28;20123;-79
2022/12/08 04:36:30;;;;;;;12.35;6.68;;;;;;;-2.67;100.00;98497.41;5066863;28;20059;-80
2022/12/08 04:38:57;;;;;;;15.35;7.05;;;;;;;-2.67;100.00;98492.09;5061867;28;20132;-80
2022/12/08 04:41:23;;;;;;;16.90;6.53;;;;;;;-2.46;100.00;98520.69;5079643;28;20051;-80
2022/12/08 04:43:51;;;;;;;13.50;7.30;;;;;;;-2.69;100.00;98504.69;5082057;28;20049;-80
2022/12/08 04:46:18;;;;;;;12.00;7.03;;;;;;;-2.70;100.00;98495.81;5080635;28;20055;-80
2022/12/08 04:48:44;;;;;;;16.20;7.27;;;;;;;-2.56;100.00;98505.44;5086822;28;20076;-80
2022/12/08 04:51:16;;;;;;;14.70;7.63;;;;;;;-2.60;100.00;98517.28;5078787;28;20063;-80
2022/12/08 04:53:42;;;;;;;15.15;6.68;;;;;;;-2.56;100.00;98515.22;5076328;28;20112;-82
2022/12/08 04:56:12;;;;;;;14.10;6.63;;;;;;;-2.72;100.00;98483.63;5067642;28;20045;-80
2022/12/08 04:58:38;;;;;;;15.18;7.57;;;;;;;-2.60;100.00;98503.97;5057997;28;20049;-80
2022/12/08 05:01:06;;;;;;;14.35;7.40;;;;;;;-2.60;100.00;98495.97;5055787;28;20136;-80
2022/12/08 05:03:33;;;;;;;19.95;8.65;;;;;;;-2.60;100.00;98505.78;5070286;28;20049;-80
2022/12/08 05:06:00;;;;;;;16.98;9.20;;;;;;;-2.68;100.00;98501.03;5067630;28;20045;-80
2022/12/08 05:08:28;;;;;;;16.30;7.40;;;;;;;-2.55;100.00;98508.94;5059331;28;20060;-80
2022/12/08 05:10:54;;;;;;;15.88;7.63;;;;;;;-2.61;100.00;98488.94;5063727;28;20040;-80
2022/12/08 05:13:21;;;;;;;16.95;7.70;;;;;;;-2.58;100.00;98490.53;5061276;28;20111;-80
2022/12/08 05:15:47;;;;;;;12.30;7.10;;;;;;;-2.62;100.00;98483.75;5069489;28;20048;-80
2022/12/08 05:18:15;;;;;;;14.18;7.72;;;;;;;-2.63;100.00;98485.56;5062785;28;20075;-80
2022/12/08 05:20:42;;;;;;;17.73;7.80;;;;;;;-2.57;100.00;98494.91;5070257;28;20048;-80
2022/12/08 05:23:09;;;;;;;13.05;6.57;;;;;;;-2.54;100.00;98505.31;5049813;28;20053;-80
2022/12/08 05:25:35;;;;;;;17.65;7.75;;;;;;;-2.51;100.00;98505.06;5050869;28;20077;-80
2022/12/08 05:28:02;;;;;;;19.27;9.07;;;;;;;-2.63;100.00;98482.91;5048602;28;20053;-80
2022/12/08 05:30:32;;;;;;;16.25;8.50;;;;;;;-2.71;100.00;98470.19;5068094;28;20135;-79
2022/12/08 05:32:59;;;;;;;;;;;;;;;-2.49;100.00;98500.47;5069150;28;20097;-80
2022/12/08 05:35:27;;;;;;;13.13;7.72;;;;;;;-2.35;100.00;98508.25;5059593;28;19928;-80
2022/12/08 05:37:54;;;;;;;24.40;15.55;;;;;;;-2.45;100.00;98499.28;5063773;28;20040;-80
2022/12/08 05:40:21;;;;;;;19.00;11.77;;;;;;;-2.32;100.00;98501.81;5069832;28;20432;-80
2022/12/08 05:42:48;;;;;;;18.80;8.93;;;;;;;-2.30;100.00;98486.59;5072998;28;20163;-79
2022/12/08 05:45:15;;;;;;;22.73;9.73;;;;;;;-2.23;100.00;98494.94;5075524;28;20380;-79
2022/12/08 05:47:42;;;;;;;21.90;11.00;;;;;;;-2.12;100.00;98505.59;5066132;28;20048;-79
2022/12/08 05:50:09;;;;;;;17.05;8.90;;;;;;;-2.21;100.00;98467.22;5060487;28;20076;-79
2022/12/08 05:52:37;;;;;;;19.13;8.15;;;;;;;-2.23;100.00;98492.25;5063927;28;20114;-79
2022/12/08 05:55:06;;;;;;;22.65;9.23;;;;;;;-2.37;100.00;98474.72;5074364;28;20446;-79
2022/12/08 05:57:33;;;;;;;18.38;9.13;;;;;;;-2.37;100.00;98469.38;5065781;28;20459;-78
2022/12/08 06:00:00;;;;;;;21.95;9.40;;;;;;;-2.36;100.00;98473.75;5065289;28;20053;-79
2022/12/08 06:02:27;;;;;;;18.08;8.32;;;;;;;-2.17;100.00;98495.31;5065452;28;20129;-79
2022/12/08 06:04:54;;;;;;;21.38;9.32;;;;;;;-2.24;100.00;98485.22;5062277;28;20048;-79
2022/12/08 06:07:20;;;;;;;16.45;8.25;;;;;;;-2.17;100.00;98489.13;5063164;28;20447;-79
2022/12/08 06:09:49;;;;;;;19.10;9.73;;;;;;;-2.22;100.00;98484.16;5063529;28;20491;-79
2022/12/08 06:12:15;;;;;;;18.20;8.50;;;;;;;-2.12;100.00;98500.28;5065301;28;20059;-79
2022/12/08 06:14:42;;;;;;;18.55;9.07;;;;;;;-2.03;100.00;98507.53;5061714;28;20178;-79
2022/12/08 06:17:09;;;;;;;17.95;9.57;;;;;;;-2.15;100.00;98481.88;5054932;28;20550;-79
2022/12/08 06:19:36;;;;;;;14.75;8.35;;;;;;;-2.27;100.00;98470.38;5054913;28;20399;-79
2022/12/08 06:22:02;;;;;;;18.92;8.13;;;;;;;-2.17;100.00;98478.47;5066746;28;20049;-79
2022/12/08 06:24:29;;;;;;;22.13;8.55;;;;;;;-2.23;100.00;98470.97;5071139;28;20382;-79
2022/12/08 06:26:57;;;;;;;17.25;8.40;;;;;;;-2.20;100.00;98482.25;5065955;28;20064;-79
2022/12/08 06:29:26;;;;;;;21.30;9.45;;;;;;;-2.26;100.00;98473.88;5072338;28;20404;-79
2022/12/08 06:31:53;;;;;;;20.23;8.95;;;;;;;-2.06;100.00;98504.25;5068869;28;20061;-79
2022/12/08 06:34:19;;;;;;;21.83;9.98;;;;;;;-2.12;100.00;98470.97;5070214;28;20127;-79
2022/12/08 06:36:46;;;;;;;20.15;9.50;;;;;;;-1.91;100.00;98496.84;5065539;28;20060;-79
2022/12/08 06:39:13;;;;;;;17.75;7.63;;;;;;;-1.85;100.00;98499.03;5064765;28;20127;-79
2022/12/08 06:44:21;;;;;;;19.98;8.57;;;;;;;-2.11;100.00;98474.47;5067878;28;20072;-79
2022/12/08 06:46:48;;;;;;;20.35;8.93;;;;;;;-2.07;100.00;98490.09;5069919;28;20055;-79
2022/12/08 06:49:14;;;;;;;19.45;8.75;;;;;;;-2.06;100.00;98486.47;5072589;28;20055;-79
2022/12/08 06:51:41;;;;;;;17.73;8.82;;;;;;;-1.94;100.00;98494.44;5070341;28;20049;-79
2022/12/08 06:54:08;;;;;;;18.80;9.27;;;;;;;-2.12;100.00;98476.31;5061863;28;20047;-79
2022/12/08 06:56:34;;;;;;;18.20;9.07;;;;;;;-1.92;100.00;98498.69;5062442;28;20454;-78
2022/12/08 06:59:01;;;;;;;19.95;8.10;;;;;;;-1.93;100.00;98496.97;5068352;28;20052;-79
2022/12/08 07:01:29;;;;;;;23.63;8.88;;;;;;;-1.80;100.00;98507.53;5065488;28;20048;-79
2022/12/08 07:03:55;;;;;;;23.27;9.70;;;;;;;-2.05;100.00;98482.81;5066051;28;20442;-79
2022/12/08 07:06:24;;;;;;;16.80;8.38;;;;;;;-1.96;100.00;98479.44;5067287;28;20499;-78
2022/12/08 07:08:52;;;;;;;18.73;9.38;;;;;;;-1.96;100.00;98476.78;5059267;28;20484;-79
2022/12/08 07:11:19;;;;;;;19.90;9.07;;;;;;;-1.77;100.00;98483.28;5054383;28;20045;-78
2022/12/08 07:13:45;;;;;;;16.27;8.60;;;;;;;-1.73;100.00;98487.41;5065612;28;20469;-79
2022/12/08 07:16:12;;;;;;;23.02;9.10;;;;;;;-1.68;100.00;98495.03;5063127;28;20037;-79
2022/12/08 07:18:41;;;;;;;22.35;9.30;;;;;;;-1.68;100.00;98471.88;5062089;28;20052;-78
2022/12/08 07:21:10;;;;;;;20.73;9.63;;;;;;;-1.66;100.00;98487.75;5066644;28;20132;-79
2022/12/08 07:23:36;;;;;;;27.58;13.20;;;;;;;-1.59;100.00;98488.94;5073485;28;20427;-79
2022/12/08 07:26:04;;;;;;;21.67;10.73;;;;;;;-1.67;100.00;98483.38;5062077;28;20057;-79
2022/12/08 07:28:35;;;;;;;26.80;11.43;;;;;;;-1.73;100.00;98467.88;5055658;28;20040;-79
2022/12/08 07:31:04;;;;;;;18.40;10.60;;;;;;;-1.54;100.00;98481.41;5053615;28;20156;-79
2022/12/08 07:33:31;;;;;;;17.80;9.88;;;;;;;-1.55;100.00;98478.88;5064363;28;20167;-79
2022/12/08 07:36:00;;;;;;;24.58;9.88;;;;;;;-1.35;100.00;98494.09;5060845;28;20049;-79
2022/12/08 07:38:28;;;;;;;21.90;10.57;;;;;;;-1.38;100.00;98490.84;5069331;28;20050;-79
2022/12/08 07:40:54;;;;;;;22.83;10.10;;;;;;;-1.28;100.00;98505.09;5070184;28;20048;-79
2022/12/08 07:43:22;;;;;;;23.45;9.85;;;;;;;-1.32;100.00;98491.19;5071391;28;20055;-79
2022/12/08 07:45:49;;;;;;;21.95;10.75;;;;;;;-1.47;100.00;98471.13;5072048;28;20499;-78
2022/12/08 07:48:15;;;;;;;18.52;8.75;;;;;;;-1.42;100.00;98471.56;5072405;28;20131;-79
2022/12/08 07:50:42;;;;;;;18.77;9.30;;;;;;;-1.31;100.00;98473.34;5072054;28;20045;-79
2022/12/08 07:53:10;;;;;;;20.35;9.05;;;;;;;-1.10;100.00;98494.72;5055945;28;20049;-79
2022/12/08 07:55:39;;;;;;;20.20;10.13;;;;;;;-1.30;100.00;98491.88;5065512;28;20045;-79
2022/12/08 07:58:06;;;;;;;25.70;9.35;;;;;;;-1.26;100.00;98480.00;5071996;28;20127;-78
2022/12/08 08:00:32;;;;;;;20.13;9.35;;;;;;;-1.16;100.00;98493.44;5069468;28;20041;-78
2022/12/08 08:02:59;;;;;;;17.08;8.70;;;;;;;-1.22;100.00;98488.59;5070936;28;20048;-79
2022/12/08 08:05:26;;;;;;;20.02;9.07;;;;;;;-1.32;100.00;98479.69;5071072;28;20052;-79
2022/12/08 08:07:52;;;;;;;17.20;8.60;;;;;;;-1.20;100.00;98499.16;5060550;28;20500;-79
2022/12/08 08:10:20;;;;;;;18.45;9.15;;;;;;;-1.05;100.00;98497.88;5070250;28;20560;-79
2022/12/08 08:12:47;;;;;;;20.02;8.98;;;;;;;-1.11;100.00;98474.38;5071232;28;20048;-79
2022/12/08 08:15:14;;;;;;;21.02;9.70;;;;;;;-1.10;100.00;98484.06;5071926;28;20067;-79
2022/12/08 08:17:40;;;;;;;21.33;10.52;;;;;;;-1.17;100.00;98472.22;5071666;28;20049;-78
2022/12/08 08:20:08;;;;;;;21.88;11.70;;;;;;;-1.00;100.00;98492.16;5071606;28;20142;-79
2022/12/08 08:22:35;;;;;;;20.83;10.35;;;;;;;-1.07;100.00;98474.00;5070669;28;20045;-80
2022/12/08 08:25:02;;;;;;;24.83;10.25;;;;;;;-1.07;100.00;98492.66;5069814;28;20053;-79
2022/12/08 08:27:30;;;;;;;14.68;8.73;;;;;;;-1.05;100.00;98459.66;5069943;28;20048;-78
2022/12/08 08:29:57;;;;;;;29.27;14.02;;;;;;;-0.99;100.00;98473.34;5071240;28;20102;-78
2022/12/08 08:32:23;;;;;;;29.38;12.20;;;;;;;-1.04;100.00;98456.03;5070545;28;20442;-79
2022/12/08 08:34:51;;;;;;;30.95;14.48;;;;;;;-0.99;100.00;98459.19;5071107;28;20080;-78
2022/12/08 08:37:17;;;;;;;26.17;11.48;;;;;;;-0.80;100.00;98470.00;5071325;28;20048;-78
2022/12/08 08:39:44;;;;;;;20.50;9.20;;;;;;;-0.75;100.00;98475.78;5070926;28;20172;-79
2022/12/08 08:42:10;;;;;;;18.65;9.55;;;;;;;-0.78;100.00;98464.53;5065515;28;20617;-79
2022/12/08 08:44:38;;;;;;;13.27;7.15;;;;;;;-0.69;100.00;98462.88;5070630;28;20126;-78
2022/12/08 08:47:05;;;;;;;19.58;9.25;;;;;;;-0.62;100.00;98464.88;5071270;28;20052;-80
2022/12/08 08:49:32;;;;;;;17.15;8.10;;;;;;;-0.52;100.00;98475.63;5071099;28;20503;-80
2022/12/08 08:51:59;;;;;;;18.15;8.70;;;;;;;-0.32;100.00;98489.09;5070448;28;20250;-78
2022/12/08 08:54:26;;;;;;;16.10;8.63;;;;;;;-0.30;100.00;98485.31;5070649;28;20049;-79
2022/12/08 08:56:57;;;;;;;20.88;9.40;;;;;;;-0.32;100.00;98465.88;5070672;28;20411;-78
2022/12/08 08:59:23;;;;;;;16.90;8.23;;;;;;;-0.34;100.00;98467.88;5062545;28;20048;-78
2022/12/08 09:01:52;;;;;;;22.02;8.95;;;;;;;-0.33;100.00;98458.88;5070379;28;20048;-78
2022/12/08 09:04:18;;;;;;;17.77;8.13;;;;;;;-0.03;100.00;98473.19;5070640;28;20468;-78
2022/12/08 09:06:45;;;;;;;27.88;11.98;;;;;;;-0.17;100.00;98453.03;5070521;28;20055;-78
2022/12/08 09:09:12;;;;;;;19.90;9.48;;;;;;;-0.19;100.00;98457.66;5070775;28;20049;-78
2022/12/08 09:11:38;;;;;;;19.33;8.45;;;;;;;-0.14;100.00;98487.50;5070903;28;20048;-79
2022/12/08 09:14:05;;;;;;;32.80;7.18;;;;;;;-0.24;100.00;98459.88;5064235;28;20124;-79
2022/12/08 09:16:32;;;;;;;13.25;6.63;;;;;;;-0.17;100.00;98468.22;5067416;28;20059;-79
2022/12/08 09:19:01;;;;;;;19.23;9.63;;;;;;;-0.09;100.00;98468.38;5070784;28;20048;-79
2022/12/08 09:21:27;;;;;;;16.38;8.38;;;;;;;-0.19;100.00;98463.00;5070665;28;20048;-79
2022/12/08 09:23:56;;;;;;;17.90;7.68;;;;;;;-0.16;100.00;98462.75;5069525;28;20053;-79
2022/12/08 09:26:24;;;;;;;14.50;7.18;;;;;;;-0.18;100.00;98440.66;5070560;28;20083;-79
2022/12/08 09:28:51;;;;;;;16.92;7.90;;;;;;;-0.01;100.00;98449.88;5070800;28;20810;-79
2022/12/08 09:31:20;;;;;;;22.15;8.52;;;;;;;0.16;100.00;98456.38;5070267;28;20059;-79
2022/12/08 09:33:47;;;;;;;13.18;7.78;;;;;;;0.15;100.00;98449.34;5060924;28;20056;-79
2022/12/08 09:36:15;;;;;;;14.35;7.45;;;;;;;0.28;100.00;98467.81;5070329;28;20048;-79
2022/12/08 09:38:42;;;;;;;15.48;7.00;;;;;;;0.42;100.00;98458.56;5070471;28;20396;-79
2022/12/08 09:41:16;;;;;;;13.98;7.22;;;;;;;0.53;100.00;98459.28;5070240;28;20045;-79
2022/12/08 09:44:02;;;;;;;14.35;7.35;;;;;;;0.42;100.00;98443.38;5069945;28;20057;-79
2022/12/08 09:46:32;;;;;;;17.98;7.30;;;;;;;0.45;100.00;98447.59;5069575;28;20048;-79
2022/12/08 09:49:00;;;;;;;13.13;8.02;;;;;;;0.33;100.00;98439.69;5064248;28;20595;-79
2022/12/08 09:51:33;;;;;;;11.95;6.70;;;;;;;0.54;100.00;98446.75;5058679;28;20527;-79
2022/12/08 09:54:04;;;;;;;12.77;7.22;;;;;;;0.47;100.00;98438.44;5049717;28;20099;-79
2022/12/08 09:56:34;;;;;;;13.85;6.50;;;;;;;0.42;100.00;98437.16;5050416;28;20052;-78
2022/12/08 09:59:06;;;;;;;15.48;7.15;;;;;;;0.45;100.00;98435.06;5050214;28;20198;-80
2022/12/08 10:01:37;;;;;;;12.95;6.68;;;;;;;0.46;100.00;98422.53;5050149;28;20045;-80
2022/12/08 10:04:04;;;;;;;11.70;5.88;;;;;;;0.51;100.00;98430.97;5064432;28;20129;-80
2022/12/08 10:06:39;;;;;;;12.98;6.82;;;;;;;0.49;100.00;98425.78;5070139;28;20063;-80
2022/12/08 10:09:18;;;;;;;14.18;7.18;;;;;;;0.51;100.00;98418.47;5069581;28;20070;-78
2022/12/08 10:11:51;;;;;;;15.48;6.38;;;;;;;0.51;100.00;98418.47;5070297;28;20044;-78
2022/12/08 10:14:24;;;;;;;20.67;9.15;;;;;;;0.62;100.00;98403.28;5070013;28;20060;-78
2022/12/08 10:16:59;;;;;;;15.00;6.95;;;;;;;0.65;100.00;98403.00;5068667;28;20138;-80
2022/12/08 10:19:27;;;;;;;17.17;7.18;;;;;;;0.69;100.00;98399.03;5068059;28;20044;-79
2022/12/08 10:21:57;;;;;;;14.45;7.38;;;;;;;0.77;100.00;98411.69;5069783;28;20109;-79
2022/12/08 10:24:32;;;;;;;12.40;7.53;;;;;;;0.72;100.00;98420.16;5067404;28;20060;-80
2022/12/08 10:27:00;;;;;;;13.10;7.03;;;;;;;0.78;100.00;98413.41;5055982;28;20444;-79
2022/12/08 10:29:27;;;;;;;12.60;6.70;;;;;;;0.76;100.00;98407.34;5073612;28;20052;-79
2022/12/08 10:31:55;;;;;;;11.15;6.28;;;;;;;0.80;100.00;98401.56;5073199;28;20476;-79
2022/12/08 10:34:23;;;;;;;14.80;7.57;;;;;;;0.91;100.00;98397.06;5073699;28;20049;-78
2022/12/08 10:36:52;;;;;;;10.15;6.03;;;;;;;0.91;100.00;98386.38;5073341;28;20419;-79
2022/12/08 10:39:35;;;;;;;21.77;7.88;;;;;;;1.03;100.00;98387.88;5073930;28;20056;-79
2022/12/08 10:42:07;;;;;;;11.82;7.13;;;;;;;1.23;100.00;98399.41;5063396;28;20488;-78
2022/12/08 10:44:40;;;;;;;17.45;7.45;;;;;;;1.27;100.00;98391.94;5055319;28;20049;-79
2022/12/08 10:47:12;;;;;;;12.20;6.60;;;;;;;1.36;100.00;98388.38;5073017;28;20068;-80
2022/12/08 10:49:39;;;;;;;13.25;6.13;;;;;;;1.47;100.00;98396.22;5073563;28;20063;-80
2022/12/08 10:52:10;;;;;;;11.48;6.15;;;;;;;1.56;100.00;98392.66;5072501;28;20048;-80
2022/12/08 10:54:37;;;;;;;10.98;5.78;;;;;;;1.42;100.00;98361.00;5073164;28;20549;-80
2022/12/08 10:57:04;;;;;;;15.27;6.65;;;;;;;1.54;100.00;98383.13;5072991;28;20059;-80
2022/12/08 10:59:33;;;;;;;10.20;5.72;;;;;;;1.67;100.00;98380.09;5062788;28;20059;-79
2022/12/08 11:02:00;;;;;;;17.10;6.90;;;;;;;1.57;100.00;98366.75;5062866;28;20515;-80
2022/12/08 11:04:34;;;;;;;11.73;5.78;;;;;;;1.62;100.00;98379.69;5072827;28;20046;-80
2022/12/08 11:07:00;;;;;;;16.27;6.35;;;;;;;1.70;100.00;98377.97;5072686;28;20496;-80
2022/12/08 11:09:45;;;;;;;13.00;5.65;;;;;;;1.57;100.00;98375.63;5073223;28;20051;-78
2022/12/08 11:12:14;;;;;;;10.65;6.07;;;;;;;1.58;100.00;98376.44;5072036;28;20072;-78
2022/12/08 11:14:57;;;;;;;13.07;5.60;;;;;;;1.41;100.00;98340.56;5073075;28;20048;-79
2022/12/08 11:17:27;;;;;;;8.88;5.50;;;;;;;1.66;100.00;98354.31;5062634;28;20053;-79
2022/12/08 11:20:01;;;;;;;14.82;5.78;;;;;;;1.55;100.00;98336.56;5072748;28;20052;-79
2022/12/08 11:22:35;;;;;;;11.07;5.53;;;;;;;1.72;100.00;98338.47;5072176;28;20055;-79
2022/12/08 11:25:10;;;;;;;8.15;5.55;;;;;;;1.73;100.00;98332.13;5072726;28;20694;-79
2022/12/08 11:27:39;;;;;;;11.80;6.13;;;;;;;1.78;100.00;98331.66;5072625;28;20099;-79
2022/12/08 11:30:15;;;;;;;13.20;5.85;;;;;;;1.81;100.00;98334.06;5072457;28;20110;-79
2022/12/08 11:32:43;;;;;;;10.82;6.05;;;;;;;1.72;100.00;98317.03;5066639;28;20041;-79